Montross, VA (22520)

5:40 PM EDT on August 22, 2014 (GMT -0400)
Grandview Landing | Change Station
CLOSE
Current Station
Personal Weather Station
Location: Hague, VA
Elevation: 7 ft
Nearby Weather Stations

Elev 7 ft 38.11 °N, 76.64 °W | Updated 14 seconds ago

Overcast
Overcast
81.3 °F
Feels Like 88 °F
N
2.2
Wind Variable Wind from NNW
Gusts 7.6 mph

Today
High -- | Low -- °F
--% Chance of Precip.
Yesterday
High -- | Low -- °F
Precip. -- in
6:27 AM 7:50 PM
Waning Crescent, 6% visible
Pressure 29.97 in
Visibility 10.0 miles
Clouds Scattered Clouds 1900 ft
Mostly Cloudy 3600 ft
Overcast 11000 ft
Heat Index 88 °F
Dew Point 76 °F
Humidity 85%
Rainfall 0.00 in
Snow Depth Not available.
UV 1 out of 12
Pollen 8.60 out of 12
Air Quality Not available.
Flu Activity Not available.
METAR K2W6 222059Z AUTO 00000KT 10SM SCT019 BKN036 OVC110 25/21 A2997 RMK AO1

More Conditions Fewer Conditions

Pressure 29.97 in
Visibility 10.0 miles
Clouds Scattered Clouds 1900 ft
Mostly Cloudy 3600 ft
Overcast 11000 ft
Heat Index 88 °F
Dew Point 76 °F
Humidity 85%
Rainfall 0.00 in
Snow Depth Not available.
UV 1 out of 12
Pollen 8.60 out of 12
Air Quality Not available.
Flu Activity Not available.
METAR K2W6 222059Z AUTO 00000KT 10SM SCT019 BKN036 OVC110 25/21 A2997 RMK AO1

More Conditions Fewer Conditions

10-Day Weather Forecast

Almanac

Astronomy

Aug. 22, 2014 Rise Set
Actual Time 6:27 AM EDT 7:50 PM EDT
Civil Twilight 6:00 AM EDT 8:18 PM EDT
Nautical Twilight 5:27 AM EDT 8:51 PM EDT
Astronomical Twilight 4:52 AM EDT 9:26 PM EDT
Moon 3:49 AM EDT 5:57 PM EDT
Length of Visible Light 14h 18m
Length of Day
13h 23m
Tomorrow will be 2m 16s shorter.
Waning Crescent, 6% of the Moon is Illuminated
Today
Waning Crescent
Aug 25
New
Sep 2
First Quarter
Sep 8
Full
Sep 15
Last Quarter

Today's Extremes

State Highs State Lows

Community

WunderPhotos

Upload Photos

1,746,260 photos uploaded!

Nearby

Snow Depth

Station Depth Elevation
No new snow has been reported.

Earthquake Activity

City Distance Mag. Time & Date
No recent earthquake activity has been reported nearby.
Minimum magnitude displayed is 2.5.

Coastal Water Temperatures

Place Temperature
Lewisetta, VA 81.0 °F
Solomons Island, MD 80.1 °F
Bishops Head, MD 81.0 °F

Nearby Weather Stations